Time;durP1;ratioP1;P1;durP2;ratioP2;P2;SDS_P1;SDS_P2;PMS_P1;PMS_P2;Temp;Humidity;BMP_temperature;BMP_pressure;BME280_temperature;BME280_humidity;BME280_pressure;Samples;Min_cycle;Max_cycle;Signal;HPM_P1;HPM_P2
2021/04/14 00:01:18;;;;;;;12.90;12.40;;;24.40;91.80;;;;;;6077025;23;20446;-43
2021/04/14 00:03:45;;;;;;;13.63;13.00;;;24.40;91.80;;;;;;6076581;23;20469;-45
2021/04/14 00:06:13;;;;;;;13.40;12.80;;;24.40;91.80;;;;;;6076523;23;20458;-44
2021/04/14 00:08:41;;;;;;;13.30;12.70;;;24.40;91.80;;;;;;6076857;23;20672;-43
2021/04/14 00:11:12;;;;;;;13.70;13.10;;;24.40;91.80;;;;;;6076453;23;20519;-44
2021/04/14 00:13:43;;;;;;;13.27;12.77;;;24.40;91.80;;;;;;6074315;23;20457;-44
2021/04/14 00:16:21;;;;;;;13.90;13.10;;;24.40;92.10;;;;;;6052245;23;20507;-43
2021/04/14 00:18:49;;;;;;;13.47;12.97;;;24.40;91.80;;;;;;6077419;23;20439;-44
2021/04/14 00:21:19;;;;;;;13.50;12.90;;;24.40;91.80;;;;;;6077147;23;20475;-43
2021/04/14 00:23:58;;;;;;;13.50;12.90;;;24.40;91.80;;;;;;6075752;23;20445;-44
2021/04/14 00:26:25;;;;;;;14.00;13.40;;;24.40;91.80;;;;;;6075412;23;20457;-44
2021/04/14 00:28:52;;;;;;;12.97;12.40;;;24.40;91.80;;;;;;6076275;23;20621;-45
2021/04/14 00:31:34;;;;;;;13.70;13.00;;;24.40;91.80;;;;;;6077767;23;20450;-43
2021/04/14 00:34:05;;;;;;;13.87;12.83;;;24.40;91.80;;;;;;6076061;23;20452;-43
2021/04/14 00:36:32;;;;;;;13.30;12.80;;;24.40;91.80;;;;;;6076794;23;20464;-43
2021/04/14 00:39:00;;;;;;;13.40;12.80;;;24.40;91.80;;;;;;6075058;23;20552;-43
2021/04/14 00:41:30;;;;;;;14.00;13.40;;;24.40;91.80;;;;;;6074698;23;20457;-43
2021/04/14 00:43:58;;;;;;;13.57;13.07;;;24.40;91.80;;;;;;6074566;23;20444;-43
2021/04/14 00:46:26;;;;;;;13.87;13.27;;;24.40;91.70;;;;;;6076842;23;20970;-44
2021/04/14 00:48:54;;;;;;;13.60;13.00;;;24.40;91.70;;;;;;6076731;23;20757;-44
2021/04/14 00:51:22;;;;;;;13.87;13.07;;;24.40;91.70;;;;;;6051440;23;20449;-43
2021/04/14 00:53:50;;;;;;;13.87;13.17;;;24.40;91.70;;;;;;6052259;23;20458;-43
2021/04/14 00:56:16;;;;;;;14.00;13.40;;;24.40;91.70;;;;;;6074609;23;20831;-43
2021/04/14 00:58:43;;;;;;;13.77;12.97;;;24.40;91.70;;;;;;6073218;23;20464;-43
2021/04/14 01:01:10;;;;;;;13.03;12.53;;;24.40;91.70;;;;;;6076036;23;20454;-43
2021/04/14 01:03:38;;;;;;;14.20;13.37;;;24.40;91.70;;;;;;6075709;23;20794;-43
2021/04/14 01:06:08;;;;;;;14.00;13.40;;;24.40;91.70;;;;;;6075708;23;20489;-43
2021/04/14 01:08:35;;;;;;;13.57;13.07;;;24.40;91.70;;;;;;6074975;23;20455;-42
2021/04/14 01:11:02;;;;;;;14.27;13.67;;;24.40;91.70;;;;;;6076078;23;20781;-44
2021/04/14 01:13:30;;;;;;;13.50;12.90;;;24.40;91.70;;;;;;6076559;23;20463;-43
2021/04/14 01:15:57;;;;;;;13.57;13.00;;;24.40;91.70;;;;;;6074530;23;20457;-43
2021/04/14 01:18:26;;;;;;;13.47;12.87;;;24.40;91.70;;;;;;6073917;23;20463;-44
2021/04/14 01:20:56;;;;;;;13.60;13.03;;;24.40;91.70;;;;;;6075498;23;20442;-43
2021/04/14 01:23:27;;;;;;;13.63;13.13;;;24.40;91.70;;;;;;6076073;23;20470;-43
2021/04/14 01:25:56;;;;;;;14.60;13.90;;;24.40;91.70;;;;;;6076873;23;20457;-43
2021/04/14 01:28:28;;;;;;;14.20;13.70;;;24.40;91.70;;;;;;6075494;23;20498;-43
2021/04/14 01:30:58;;;;;;;13.20;12.70;;;24.40;92.00;;;;;;6050943;23;20454;-42
2021/04/14 01:33:31;;;;;;;13.43;12.83;;;24.40;91.70;;;;;;6077028;23;20485;-44
2021/04/14 01:35:59;;;;;;;13.20;12.70;;;24.40;91.70;;;;;;6076247;23;20464;-45
2021/04/14 01:38:27;;;;;;;14.03;12.93;;;24.40;91.70;;;;;;6076859;23;20673;-43
2021/04/14 01:40:54;;;;;;;14.10;13.40;;;24.40;91.70;;;;;;6073346;23;20466;-42
2021/04/14 01:43:22;;;;;;;14.03;13.47;;;24.40;91.70;;;;;;6074717;23;20743;-43
2021/04/14 01:45:49;;;;;;;14.10;13.30;;;24.40;91.70;;;;;;6073737;23;20445;-43
2021/04/14 01:48:18;;;;;;;13.63;13.13;;;24.40;91.70;;;;;;6073141;23;20555;-44
2021/04/14 01:50:45;;;;;;;13.37;12.87;;;24.40;91.70;;;;;;6076246;23;20469;-43
2021/04/14 01:53:18;;;;;;;14.37;13.77;;;24.40;91.70;;;;;;6075402;23;20488;-43
2021/04/14 01:55:47;;;;;;;13.90;13.40;;;24.40;91.70;;;;;;6074911;23;20461;-43
2021/04/14 01:58:15;;;;;;;14.10;13.50;;;24.40;91.70;;;;;;6076502;23;20452;-43
2021/04/14 02:00:47;;;;;;;13.53;13.00;;;24.40;91.70;;;;;;6075813;23;20458;-43
2021/04/14 02:03:15;;;;;;;14.23;13.43;;;24.30;91.60;;;;;;6049636;23;20552;-42
2021/04/14 02:05:42;;;;;;;13.70;13.10;;;24.40;91.60;;;;;;6075672;23;20450;-42
2021/04/14 02:08:11;;;;;;;13.53;12.93;;;24.40;91.60;;;;;;6074637;23;20477;-44
2021/04/14 02:10:39;;;;;;;13.40;12.80;;;24.40;91.60;;;;;;6075127;23;20479;-43
2021/04/14 02:13:10;;;;;;;14.17;13.50;;;24.40;91.60;;;;;;6074209;23;20457;-43
2021/04/14 02:15:37;;;;;;;13.50;12.90;;;24.40;91.60;;;;;;6073219;23;20442;-42
2021/04/14 02:18:06;;;;;;;13.40;12.90;;;24.40;91.60;;;;;;6074546;23;20449;-43
2021/04/14 02:20:34;;;;;;;13.10;12.60;;;24.40;91.60;;;;;;6072477;23;20447;-43
2021/04/14 02:23:02;;;;;;;13.80;13.10;;;24.40;91.60;;;;;;6073751;23;20461;-43
2021/04/14 02:25:28;;;;;;;13.43;12.87;;;24.40;91.60;;;;;;6075941;23;20778;-43
2021/04/14 02:27:55;;;;;;;13.90;13.23;;;24.30;91.60;;;;;;6073879;23;20460;-42
2021/04/14 02:30:27;;;;;;;13.23;12.67;;;24.40;91.60;;;;;;6074894;23;20850;-43
2021/04/14 02:32:55;;;;;;;13.80;13.10;;;24.30;91.60;;;;;;6075786;23;20457;-42
2021/04/14 02:35:25;;;;;;;13.17;12.60;;;24.40;91.60;;;;;;6073572;23;20457;-45
2021/04/14 02:37:53;;;;;;;13.20;12.70;;;24.40;91.60;;;;;;6075532;23;20449;-43
2021/04/14 02:40:22;;;;;;;13.80;13.07;;;24.40;91.60;;;;;;6073473;23;20440;-42
2021/04/14 02:42:51;;;;;;;13.67;13.17;;;24.40;91.60;;;;;;6073746;23;20472;-43
2021/04/14 02:45:22;;;;;;;13.50;12.90;;;24.40;91.60;;;;;;6072900;23;20472;-43
2021/04/14 02:47:50;;;;;;;14.03;13.47;;;24.40;91.60;;;;;;6074878;23;20750;-43
2021/04/14 02:50:17;;;;;;;14.03;13.33;;;24.40;91.60;;;;;;6073390;23;20460;-43
2021/04/14 02:52:53;;;;;;;15.17;14.40;;;24.40;91.60;;;;;;6049701;23;20544;-43
2021/04/14 02:55:22;;;;;;;14.80;14.00;;;24.40;91.60;;;;;;6075576;23;20462;-43
2021/04/14 02:57:51;;;;;;;13.40;12.90;;;24.40;91.60;;;;;;6074969;23;20693;-43
2021/04/14 03:00:22;;;;;;;13.83;13.30;;;24.30;91.50;;;;;;6074332;23;20446;-43
2021/04/14 03:02:49;;;;;;;12.70;12.30;;;24.40;91.60;;;;;;6075012;23;20820;-43
2021/04/14 03:05:22;;;;;;;13.03;12.53;;;24.40;91.60;;;;;;6073895;23;20584;-44
2021/04/14 03:07:49;;;;;;;13.10;12.60;;;24.30;91.60;;;;;;6072695;23;20457;-43
2021/04/14 03:10:17;;;;;;;14.17;13.53;;;24.40;91.60;;;;;;6073323;23;20446;-42
2021/04/14 03:12:50;;;;;;;13.37;12.77;;;24.30;91.50;;;;;;6074086;23;20469;-43
2021/04/14 03:15:27;;;;;;;13.70;13.10;;;24.40;91.60;;;;;;6048284;23;20718;-42
2021/04/14 03:18:15;;;;;;;13.80;13.27;;;24.40;91.50;;;;;;6073406;23;20454;-42
2021/04/14 03:20:43;;;;;;;13.43;12.93;;;24.40;91.50;;;;;;6074388;23;20449;-43
2021/04/14 03:23:13;;;;;;;13.67;13.17;;;24.40;91.50;;;;;;6073360;23;20457;-44
2021/04/14 03:25:40;;;;;;;13.87;13.37;;;24.40;91.50;;;;;;6072340;23;20450;-43
2021/04/14 03:28:07;;;;;;;13.90;13.30;;;24.40;91.80;;;;;;6072179;23;20448;-42
2021/04/14 03:30:35;;;;;;;13.27;12.80;;;24.40;91.50;;;;;;6074488;23;20596;-42
2021/04/14 03:33:02;;;;;;;13.30;12.80;;;24.40;91.50;;;;;;6074110;23;20540;-42
2021/04/14 03:35:30;;;;;;;14.10;13.40;;;24.40;91.50;;;;;;6048059;23;20579;-43
2021/04/14 03:37:59;;;;;;;14.17;13.60;;;24.40;91.50;;;;;;6048447;23;20453;-43
2021/04/14 03:40:27;;;;;;;14.07;13.47;;;24.40;91.50;;;;;;6071067;23;20497;-43
2021/04/14 03:42:55;;;;;;;13.97;13.47;;;24.40;91.40;;;;;;6071064;23;20461;-43
2021/04/14 03:45:28;;;;;;;14.50;13.83;;;24.40;91.40;;;;;;6073532;23;20477;-42
2021/04/14 03:47:56;;;;;;;13.90;13.40;;;24.40;91.40;;;;;;6073040;23;20804;-43
2021/04/14 03:50:24;;;;;;;13.83;13.23;;;24.50;91.40;;;;;;6071853;23;20457;-43
2021/04/14 03:52:53;;;;;;;14.80;14.03;;;24.50;91.40;;;;;;6068932;23;20447;-43
2021/04/14 03:55:23;;;;;;;14.43;13.93;;;24.50;91.40;;;;;;6072541;23;20470;-42
2021/04/14 03:57:51;;;;;;;14.30;13.70;;;24.50;91.40;;;;;;6073668;23;20556;-44
2021/04/14 04:00:19;;;;;;;14.70;13.90;;;24.50;91.30;;;;;;6072868;23;20448;-44
2021/04/14 04:02:46;;;;;;;14.20;13.60;;;24.50;91.30;;;;;;6073518;23;20463;-42
2021/04/14 04:05:14;;;;;;;14.67;14.10;;;24.50;91.30;;;;;;6073787;23;20452;-43
2021/04/14 04:07:41;;;;;;;14.90;14.30;;;24.50;91.30;;;;;;6044037;23;20447;-42
2021/04/14 04:10:10;;;;;;;15.20;14.50;;;24.60;91.30;;;;;;6069837;23;20450;-43
2021/04/14 04:12:37;;;;;;;15.73;14.83;;;24.60;91.30;;;;;;6042938;23;20444;-44
2021/04/14 04:15:11;;;;;;;15.20;14.60;;;24.60;91.30;;;;;;6068574;23;20466;-44
2021/04/14 04:17:39;;;;;;;15.87;15.27;;;24.60;91.30;;;;;;6070724;23;20457;-42
2021/04/14 04:20:09;;;;;;;15.43;14.83;;;24.60;91.20;;;;;;6071850;23;20556;-43
2021/04/14 04:22:37;;;;;;;15.43;14.93;;;24.60;91.20;;;;;;6069040;23;20482;-43
2021/04/14 04:25:06;;;;;;;15.30;14.80;;;24.60;91.20;;;;;;6069889;23;20492;-42
2021/04/14 04:27:34;;;;;;;15.53;14.93;;;24.60;91.20;;;;;;6072324;23;20883;-44
2021/04/14 04:30:01;;;;;;;15.80;15.10;;;24.60;91.10;;;;;;6069452;23;20470;-43
2021/04/14 04:32:29;;;;;;;14.93;14.40;;;24.70;91.20;;;;;;6071754;23;20454;-43
2021/04/14 04:34:56;;;;;;;15.67;15.07;;;24.70;91.10;;;;;;6071339;23;20492;-43
2021/04/14 04:37:24;;;;;;;15.00;14.40;;;24.70;91.10;;;;;;6070434;23;20827;-43
2021/04/14 04:39:51;;;;;;;15.00;14.40;;;24.70;91.10;;;;;;6069981;23;20477;-42
2021/04/14 04:42:18;;;;;;;16.03;15.30;;;24.70;91.10;;;;;;6069668;23;20457;-42
2021/04/14 04:44:45;;;;;;;14.60;14.10;;;24.70;91.10;;;;;;6068347;23;20437;-43
2021/04/14 04:47:13;;;;;;;14.87;14.27;;;24.70;91.10;;;;;;6069537;23;20452;-43
2021/04/14 04:49:42;;;;;;;15.07;14.57;;;24.80;91.10;;;;;;6067195;23;21130;-45
2021/04/14 04:52:09;;;;;;;14.93;14.23;;;24.80;91.10;;;;;;6069578;23;20784;-43
2021/04/14 04:54:38;;;;;;;14.43;13.87;;;24.80;91.00;;;;;;6066329;23;20462;-44
2021/04/14 04:57:08;;;;;;;14.50;13.90;;;24.80;91.00;;;;;;6067915;23;20450;-44
2021/04/14 04:59:34;;;;;;;15.43;14.83;;;24.80;91.00;;;;;;6070603;23;21009;-44
2021/04/14 05:02:02;;;;;;;15.20;14.60;;;24.80;91.00;;;;;;6066427;23;20477;-43
2021/04/14 05:04:30;;;;;;;15.57;14.87;;;24.80;90.90;;;;;;6066326;23;20459;-43
2021/04/14 05:06:57;;;;;;;15.87;14.90;;;24.80;90.90;;;;;;6065066;23;20694;-42
2021/04/14 05:09:24;;;;;;;14.90;14.30;;;24.80;90.90;;;;;;6067333;23;20575;-43
2021/04/14 05:11:51;;;;;;;15.20;14.60;;;24.80;90.90;;;;;;6040695;23;20473;-43
2021/04/14 05:14:26;;;;;;;15.63;15.00;;;24.80;90.90;;;;;;6065915;23;20454;-43
2021/04/14 05:16:54;;;;;;;15.83;15.23;;;24.80;90.90;;;;;;6064315;23;20461;-43
2021/04/14 05:19:36;;;;;;;14.23;13.73;;;24.90;90.90;;;;;;6061278;23;20454;-43
2021/04/14 05:22:03;;;;;;;15.27;14.57;;;24.90;90.80;;;;;;6064935;23;20451;-44
2021/04/14 05:24:30;;;;;;;14.90;14.40;;;24.90;90.80;;;;;;6037468;23;20487;-43
2021/04/14 05:26:57;;;;;;;15.93;14.93;;;24.90;90.80;;;;;;6065725;23;20475;-42
2021/04/14 05:29:30;;;;;;;15.20;14.60;;;24.90;90.80;;;;;;6061578;23;20461;-44
2021/04/14 05:31:58;;;;;;;15.63;14.93;;;25.00;90.80;;;;;;6061353;23;20460;-42
2021/04/14 05:34:25;;;;;;;15.43;14.73;;;24.90;90.80;;;;;;6060529;23;20469;-43
2021/04/14 05:36:54;;;;;;;15.63;15.03;;;25.00;90.80;;;;;;6056888;23;20462;-43
2021/04/14 05:39:21;;;;;;;14.97;14.37;;;25.00;90.80;;;;;;6059343;23;20519;-42
2021/04/14 05:41:48;;;;;;;15.00;14.43;;;25.00;90.80;;;;;;6033553;23;20485;-42
2021/04/14 05:44:20;;;;;;;15.97;15.27;;;25.00;90.70;;;;;;6059031;23;20460;-42
2021/04/14 05:46:48;;;;;;;14.50;14.00;;;25.00;90.70;;;;;;6057893;23;20781;-43
2021/04/14 05:49:16;;;;;;;15.03;14.53;;;25.00;90.70;;;;;;6057303;23;20464;-42
2021/04/14 05:51:44;;;;;;;15.17;14.57;;;25.00;90.70;;;;;;6057883;23;20685;-42
2021/04/14 05:54:13;;;;;;;14.77;14.17;;;25.00;90.60;;;;;;6056510;23;20444;-43
2021/04/14 05:56:45;;;;;;;15.00;14.40;;;25.00;90.70;;;;;;6031735;23;20480;-44
2021/04/14 05:59:14;;;;;;;14.80;14.20;;;25.00;90.70;;;;;;6055000;23;20543;-42
2021/04/14 06:01:43;;;;;;;14.90;14.30;;;25.00;90.70;;;;;;6027676;23;20461;-42
2021/04/14 06:04:11;;;;;;;15.00;14.40;;;25.00;90.60;;;;;;6049339;23;20459;-43
2021/04/14 06:06:39;;;;;;;14.53;13.83;;;25.00;90.70;;;;;;6051145;23;20470;-42
2021/04/14 06:09:08;;;;;;;14.97;14.17;;;25.00;91.00;;;;;;6051764;23;20480;-42
2021/04/14 06:11:37;;;;;;;14.70;13.90;;;24.90;90.60;;;;;;6052388;23;20453;-44
2021/04/14 06:14:11;;;;;;;20.37;18.63;;;25.00;90.70;;;;;;6027740;23;20441;-42
2021/04/14 06:16:39;;;;;;;27.10;23.50;;;24.90;90.60;;;;;;6047655;23;20432;-43
2021/04/14 06:19:07;;;;;;;28.47;25.27;;;24.90;90.70;;;;;;6049750;23;20453;-43
2021/04/14 06:21:34;;;;;;;32.07;26.03;;;24.90;90.80;;;;;;6046483;23;20867;-43
2021/04/14 06:24:01;;;;;;;35.40;28.20;;;25.00;90.90;;;;;;6049882;23;20573;-41
2021/04/14 06:26:37;;;;;;;38.57;30.73;;;24.90;90.90;;;;;;6043211;23;20470;-42
2021/04/14 06:29:05;;;;;;;40.93;30.70;;;24.90;90.90;;;;;;6047453;23;20878;-42
2021/04/14 06:31:39;;;;;;;44.63;33.33;;;24.90;91.00;;;;;;6051260;23;20563;-42
2021/04/14 06:34:14;;;;;;;51.13;33.57;;;24.90;91.40;;;;;;6045432;23;20765;-41
2021/04/14 06:36:42;;;;;;;47.53;35.03;;;24.90;91.10;;;;;;6045842;23;20448;-42
2021/04/14 06:39:11;;;;;;;52.17;36.60;;;24.90;91.10;;;;;;6044495;23;20632;-43
2021/04/14 06:41:58;;;;;;;43.70;35.07;;;24.90;91.20;;;;;;6043107;23;20462;-43
2021/04/14 06:44:58;;;;;;;54.23;36.80;;;24.80;91.20;;;;;;6046271;23;20464;-43
2021/04/14 06:47:33;;;;;;;52.07;35.57;;;24.90;91.40;;;;;;6044716;23;20798;-43
2021/04/14 06:50:09;;;;;;;50.57;36.63;;;24.80;91.40;;;;;;6046707;23;20456;-42
2021/04/14 06:52:39;;;;;;;50.30;38.90;;;24.80;91.50;;;;;;6045979;23;20582;-43
2021/04/14 06:55:12;;;;;;;56.03;37.30;;;24.80;91.60;;;;;;6047574;23;20457;-43
2021/04/14 06:57:45;;;;;;;60.03;40.37;;;24.80;91.80;;;;;;6044352;23;20460;-42
2021/04/14 07:00:20;;;;;;;56.43;42.40;;;24.70;92.00;;;;;;6044200;23;20453;-42
2021/04/14 07:02:51;;;;;;;58.10;42.90;;;24.80;92.20;;;;;;6043806;23;20471;-41
2021/04/14 07:05:22;;;;;;;57.77;42.10;;;24.70;92.30;;;;;;6046141;23;20457;-41
2021/04/14 07:07:52;;;;;;;53.30;40.90;;;24.70;92.50;;;;;;6045209;23;20440;-43
2021/04/14 07:10:22;;;;;;;54.93;41.20;;;24.70;92.70;;;;;;6045434;23;20527;-43
2021/04/14 07:12:51;;;;;;;56.60;40.07;;;24.70;92.70;;;;;;6044718;23;20467;-42
2021/04/14 07:15:21;;;;;;;60.63;39.23;;;24.60;92.80;;;;;;6045712;23;20446;-42
2021/04/14 07:18:19;;;;;;;53.23;39.60;;;24.60;92.80;;;;;;6043889;23;20519;-43
2021/04/14 07:20:54;;;;;;;47.97;41.30;;;24.60;92.90;;;;;;6045034;23;20470;-42
2021/04/14 07:23:30;;;;;;;50.17;38.77;;;24.60;92.90;;;;;;6046180;23;20572;-42
2021/04/14 07:26:01;;;;;;;47.97;37.03;;;24.60;93.00;;;;;;6044817;23;20524;-42
2021/04/14 07:28:53;;;;;;;50.30;38.23;;;24.60;93.10;;;;;;6042527;23;20448;-43
2021/04/14 07:31:30;;;;;;;44.97;36.20;;;24.60;93.10;;;;;;6046435;23;20462;-43
2021/04/14 07:34:10;;;;;;;44.87;35.60;;;24.60;93.10;;;;;;6046493;23;20455;-43
2021/04/14 07:36:48;;;;;;;42.33;35.47;;;24.60;93.10;;;;;;6044538;23;20449;-42
2021/04/14 07:39:20;;;;;;;41.07;34.60;;;24.50;93.00;;;;;;6046379;23;20974;-42
2021/04/14 07:41:56;;;;;;;39.50;33.67;;;24.60;93.10;;;;;;6050182;23;20464;-44
2021/04/14 07:44:31;;;;;;;38.60;34.53;;;24.50;93.00;;;;;;6043571;23;20469;-41
2021/04/14 07:46:59;;;;;;;39.13;33.30;;;24.50;93.00;;;;;;6022907;23;20883;-42
2021/04/14 07:49:43;;;;;;;37.33;31.23;;;24.50;92.90;;;;;;6048152;23;20455;-41
2021/04/14 07:52:17;;;;;;;34.93;31.07;;;24.60;92.70;;;;;;6047763;23;20437;-42
2021/04/14 07:54:47;;;;;;;35.57;31.17;;;24.50;92.50;;;;;;6047612;23;20490;-42
2021/04/14 07:57:24;;;;;;;32.33;29.00;;;24.50;92.30;;;;;;6038470;23;20453;-44
2021/04/14 07:59:51;;;;;;;32.13;29.03;;;24.50;92.10;;;;;;6029857;23;20477;-42
2021/04/14 08:02:30;;;;;;;31.30;28.00;;;24.50;91.90;;;;;;6043222;23;20442;-41
2021/04/14 08:05:10;;;;;;;29.77;26.87;;;24.50;91.70;;;;;;6045453;23;20465;-43
2021/04/14 08:07:41;;;;;;;28.13;25.43;;;24.50;91.60;;;;;;6040494;23;20589;-42
2021/04/14 08:10:12;;;;;;;28.03;25.50;;;24.50;91.40;;;;;;6042129;23;21025;-42
2021/04/14 08:12:52;;;;;;;28.17;25.27;;;24.50;91.30;;;;;;6044658;23;20455;-42
2021/04/14 08:15:28;;;;;;;27.03;24.80;;;24.50;91.10;;;;;;6046359;23;20454;-42
2021/04/14 08:18:11;;;;;;;28.60;25.83;;;24.50;91.00;;;;;;6043506;23;20880;-42
2021/04/14 08:20:51;;;;;;;25.90;23.40;;;24.50;90.80;;;;;;6043211;23;20450;-42
2021/04/14 08:23:21;;;;;;;25.87;23.60;;;24.50;90.60;;;;;;6042661;23;20454;-43
2021/04/14 08:25:51;;;;;;;27.63;25.03;;;24.50;90.50;;;;;;6046383;23;20751;-43
2021/04/14 08:28:27;;;;;;;24.50;22.57;;;24.50;90.40;;;;;;6041598;23;20897;-42
2021/04/14 08:31:06;;;;;;;24.70;22.70;;;24.40;90.30;;;;;;6042199;23;20461;-43
2021/04/14 08:33:34;;;;;;;24.00;22.00;;;24.40;90.20;;;;;;6043750;23;20460;-42
2021/04/14 08:36:12;;;;;;;24.23;22.37;;;24.40;90.00;;;;;;6040233;23;20725;-42
2021/04/14 08:38:41;;;;;;;23.70;22.00;;;24.40;90.00;;;;;;6020311;23;20450;-43
2021/04/14 08:41:25;;;;;;;24.57;22.37;;;24.40;89.70;;;;;;6044262;23;21047;-43
2021/04/14 08:43:53;;;;;;;23.40;21.03;;;24.40;89.50;;;;;;6044039;23;20457;-43
2021/04/14 08:46:29;;;;;;;22.70;20.80;;;24.40;89.20;;;;;;6044860;23;20446;-42
2021/04/14 08:49:01;;;;;;;22.30;20.57;;;24.40;89.00;;;;;;6040865;23;20467;-42
2021/04/14 08:51:29;;;;;;;22.23;20.30;;;24.40;88.80;;;;;;6038927;23;20445;-42
2021/04/14 08:53:58;;;;;;;21.43;19.30;;;24.40;88.30;;;;;;6043194;23;20927;-43
2021/04/14 08:56:26;;;;;;;20.80;19.20;;;24.40;88.10;;;;;;6033593;23;20472;-42
2021/04/14 08:58:54;;;;;;;21.83;19.93;;;24.40;88.00;;;;;;6028488;23;20495;-44
2021/04/14 09:01:22;;;;;;;20.30;18.97;;;24.30;87.70;;;;;;6032835;23;20456;-42
2021/04/14 09:03:49;;;;;;;21.63;19.97;;;24.30;87.50;;;;;;6042249;23;20476;-42
2021/04/14 09:06:19;;;;;;;21.07;19.63;;;24.30;87.30;;;;;;6043003;23;20956;-43
2021/04/14 09:08:48;;;;;;;20.90;19.03;;;24.30;87.10;;;;;;6044623;23;21192;-43
2021/04/14 09:11:21;;;;;;;19.40;18.13;;;24.30;86.60;;;;;;6017769;23;21079;-42
2021/04/14 09:13:54;;;;;;;22.07;20.20;;;24.30;86.60;;;;;;6015240;23;20454;-42
2021/04/14 09:16:35;;;;;;;19.70;18.40;;;24.30;86.30;;;;;;6041939;23;20461;-42
2021/04/14 09:19:27;;;;;;;20.30;18.80;;;24.20;86.10;;;;;;6038620;23;20536;-44
2021/04/14 09:21:57;;;;;;;19.20;18.00;;;24.20;86.10;;;;;;6045415;23;20549;-42
2021/04/14 09:24:41;;;;;;;18.20;17.10;;;24.20;85.90;;;;;;6037324;23;20457;-43
2021/04/14 09:27:25;;;;;;;20.40;18.90;;;24.20;85.70;;;;;;6042052;23;20454;-43
2021/04/14 09:30:03;;;;;;;20.07;18.47;;;24.20;85.80;;;;;;6041127;23;21090;-42
2021/04/14 09:32:50;;;;;;;18.17;17.07;;;24.20;85.60;;;;;;6043627;23;20472;-43
2021/04/14 09:35:40;;;;;;;18.20;17.10;;;24.20;85.50;;;;;;6016457;23;21274;-42
2021/04/14 09:38:15;;;;;;;18.40;17.37;;;24.10;85.20;;;;;;6046894;23;20469;-42
2021/04/14 09:40:42;;;;;;;18.67;17.20;;;24.20;85.70;;;;;;6041944;23;21281;-43
2021/04/14 09:43:32;;;;;;;18.13;17.03;;;24.10;84.60;;;;;;6045205;23;20457;-42
2021/04/14 09:46:02;;;;;;;18.13;16.57;;;24.10;84.90;;;;;;6042841;23;20951;-43
2021/04/14 09:48:40;;;;;;;18.27;16.77;;;24.10;84.90;;;;;;6041811;23;20559;-42
2021/04/14 09:51:18;;;;;;;17.60;16.70;;;24.20;84.80;;;;;;6045523;23;20776;-43
2021/04/14 09:53:48;;;;;;;17.30;16.37;;;24.10;84.40;;;;;;6046322;23;20473;-43
2021/04/14 09:56:19;;;;;;;18.80;17.70;;;24.20;84.20;;;;;;6042275;23;20477;-42
2021/04/14 09:58:50;;;;;;;17.10;16.17;;;24.10;84.10;;;;;;6044524;23;20468;-42
2021/04/14 10:01:23;;;;;;;17.83;16.50;;;24.10;84.00;;;;;;6042584;23;20448;-41
2021/04/14 10:03:54;;;;;;;17.27;16.33;;;24.10;84.00;;;;;;6039811;23;20891;-42
2021/04/14 10:06:23;;;;;;;17.80;16.80;;;24.10;83.90;;;;;;6041920;23;20456;-43
2021/04/14 10:08:57;;;;;;;16.60;15.70;;;24.10;83.30;;;;;;6040602;23;20457;-42
2021/04/14 10:11:29;;;;;;;16.57;15.57;;;24.10;84.00;;;;;;6037916;23;20705;-41
2021/04/14 10:13:57;;;;;;;16.90;15.90;;;24.10;83.20;;;;;;6003547;23;20585;-42
2021/04/14 10:16:26;;;;;;;17.17;16.07;;;24.10;83.20;;;;;;6043133;23;20465;-42
2021/04/14 10:19:01;;;;;;;17.43;16.50;;;24.10;83.00;;;;;;6039310;23;20456;-41
2021/04/14 10:21:29;;;;;;;15.93;15.10;;;24.20;82.90;;;;;;6043453;23;20692;-42
2021/04/14 10:24:02;;;;;;;15.43;14.63;;;24.20;82.50;;;;;;6007201;23;21197;-43
2021/04/14 10:26:32;;;;;;;16.40;15.50;;;24.20;82.30;;;;;;5980922;23;20444;-42
2021/04/14 10:29:01;;;;;;;17.07;15.90;;;24.20;82.20;;;;;;5973953;23;20490;-42
2021/04/14 10:31:30;;;;;;;16.53;15.73;;;24.20;82.10;;;;;;5978106;23;20448;-41
2021/04/14 10:34:07;;;;;;;15.70;15.00;;;24.20;81.80;;;;;;6013940;23;20989;-42
2021/04/14 10:36:38;;;;;;;15.93;15.17;;;24.20;81.40;;;;;;6042135;23;20457;-42
2021/04/14 10:39:15;;;;;;;15.90;15.20;;;24.20;81.10;;;;;;6045739;23;20447;-43
2021/04/14 10:41:44;;;;;;;16.03;15.10;;;24.30;81.10;;;;;;6046933;23;20720;-43
2021/04/14 10:44:20;;;;;;;15.60;14.90;;;24.20;80.70;;;;;;6047517;23;20450;-42
2021/04/14 10:46:48;;;;;;;16.60;15.67;;;24.20;80.40;;;;;;6042957;23;20884;-42
2021/04/14 10:49:32;;;;;;;15.87;15.10;;;24.20;80.50;;;;;;6044671;23;20468;-42
2021/04/14 10:52:04;;;;;;;15.67;14.90;;;24.30;80.30;;;;;;6043537;23;20449;-42
2021/04/14 10:54:32;;;;;;;16.20;15.40;;;24.30;80.40;;;;;;6045394;23;20446;-41
2021/04/14 10:57:03;;;;;;;15.23;14.53;;;24.30;80.20;;;;;;6044583;23;20456;-42
2021/04/14 10:59:31;;;;;;;15.70;15.10;;;24.20;79.70;;;;;;6024014;23;20461;-43
2021/04/14 11:02:00;;;;;;;15.40;14.70;;;24.20;80.10;;;;;;6048465;23;20453;-42
2021/04/14 11:04:34;;;;;;;15.90;15.20;;;24.20;80.30;;;;;;6044166;23;20865;-42
2021/04/14 11:07:04;;;;;;;16.80;15.50;;;24.20;80.50;;;;;;6049387;23;20453;-42
2021/04/14 11:09:37;;;;;;;16.23;15.40;;;24.20;80.90;;;;;;6050028;23;20476;-43
2021/04/14 11:12:08;;;;;;;16.60;15.80;;;24.30;81.30;;;;;;6051632;23;21190;-43
2021/04/14 11:14:37;;;;;;;16.43;15.73;;;24.20;81.50;;;;;;6046750;23;21244;-43
2021/04/14 11:17:07;;;;;;;16.13;15.23;;;24.30;81.80;;;;;;6045927;23;20589;-42
2021/04/14 11:19:43;;;;;;;16.50;15.50;;;24.30;82.10;;;;;;6020914;23;20532;-42
2021/04/14 11:22:11;;;;;;;16.30;15.50;;;24.30;82.20;;;;;;6049728;23;20518;-42
2021/04/14 11:24:47;;;;;;;15.90;15.07;;;24.30;82.40;;;;;;6044472;23;20461;-42
2021/04/14 11:27:29;;;;;;;16.73;15.50;;;24.30;82.80;;;;;;6047579;23;20486;-43
2021/04/14 11:30:08;;;;;;;16.60;15.70;;;24.40;83.30;;;;;;6050880;23;20460;-42
2021/04/14 11:32:35;;;;;;;16.90;15.70;;;24.40;83.60;;;;;;6048849;23;20499;-42
2021/04/14 11:35:05;;;;;;;16.27;15.47;;;24.40;83.80;;;;;;6050690;23;21128;-43
2021/04/14 11:37:44;;;;;;;16.70;15.80;;;24.30;84.00;;;;;;6046114;23;20612;-43
2021/04/14 11:40:41;;;;;;;16.17;15.37;;;24.30;84.30;;;;;;6042631;23;20854;-43
2021/04/14 11:43:31;;;;;;;16.37;15.70;;;24.30;84.50;;;;;;6046734;23;20508;-42
2021/04/14 11:46:05;;;;;;;16.33;15.23;;;24.30;84.70;;;;;;6044613;23;20453;-42
2021/04/14 11:48:36;;;;;;;16.03;15.23;;;24.30;84.90;;;;;;6044205;23;20450;-42
2021/04/14 11:51:21;;;;;;;16.30;15.40;;;24.30;85.10;;;;;;6046804;23;20524;-43
2021/04/14 11:53:55;;;;;;;15.87;14.97;;;24.20;85.20;;;;;;6043480;23;20450;-43
2021/04/14 11:56:37;;;;;;;17.10;16.00;;;24.20;85.30;;;;;;6046256;23;20533;-43
2021/04/14 11:59:07;;;;;;;15.60;15.00;;;24.20;85.50;;;;;;6044491;23;20448;-43
2021/04/14 12:01:35;;;;;;;16.30;15.50;;;24.20;85.60;;;;;;6047492;23;20458;-42
2021/04/14 12:04:14;;;;;;;15.03;14.13;;;24.20;85.80;;;;;;6048803;23;20462;-42
2021/04/14 12:06:41;;;;;;;15.43;14.73;;;24.20;86.00;;;;;;6046353;23;20442;-43
2021/04/14 12:09:08;;;;;;;15.93;14.93;;;24.20;86.00;;;;;;6049466;23;20448;-43
2021/04/14 12:11:36;;;;;;;15.33;14.63;;;24.10;86.00;;;;;;6050604;23;21112;-43
2021/04/14 12:14:04;;;;;;;14.90;14.30;;;24.10;86.10;;;;;;6045534;23;20449;-41
2021/04/14 12:16:32;;;;;;;16.23;15.53;;;24.10;86.30;;;;;;6050358;23;20489;-44
2021/04/14 12:18:59;;;;;;;15.40;14.23;;;24.10;86.40;;;;;;6024747;23;20465;-42
2021/04/14 12:21:26;;;;;;;15.63;14.70;;;24.10;86.50;;;;;;6047537;23;20450;-42
2021/04/14 12:23:55;;;;;;;15.50;14.70;;;24.10;86.60;;;;;;6046133;23;20449;-42
2021/04/14 12:26:28;;;;;;;14.90;14.27;;;24.00;86.60;;;;;;6046337;23;20448;-42
2021/04/14 12:29:00;;;;;;;15.30;14.70;;;24.00;86.70;;;;;;6044428;23;20891;-41
2021/04/14 12:31:31;;;;;;;16.07;15.27;;;24.10;86.90;;;;;;6044342;23;20473;-43
2021/04/14 12:33:59;;;;;;;15.33;14.73;;;24.10;87.00;;;;;;6046128;23;21036;-42
2021/04/14 12:36:27;;;;;;;14.50;14.00;;;24.10;87.20;;;;;;6046524;23;20766;-43
2021/04/14 12:38:53;;;;;;;14.10;13.60;;;24.10;87.20;;;;;;6046563;23;20566;-42
2021/04/14 12:41:21;;;;;;;14.27;13.43;;;24.10;87.30;;;;;;6046837;23;20474;-43
2021/04/14 12:43:53;;;;;;;14.30;13.60;;;24.10;87.40;;;;;;6049961;23;20480;-43
2021/04/14 12:46:23;;;;;;;14.40;13.73;;;24.10;87.50;;;;;;6044537;23;20449;-42
2021/04/14 12:48:50;;;;;;;14.10;13.50;;;24.00;87.40;;;;;;6045577;23;20489;-43